createdAt,value
2022-10-22T03:41:01.704Z,14.40
2022-10-22T03:43:28.388Z,14.40
2022-10-22T03:45:55.066Z,14.40
2022-10-22T03:48:21.824Z,14.30
2022-10-22T03:50:48.474Z,14.30
2022-10-22T03:53:15.179Z,14.30
2022-10-22T03:55:41.877Z,14.30
2022-10-22T03:58:08.556Z,14.20
2022-10-22T04:00:35.843Z,14.20
2022-10-22T04:03:02.479Z,14.20
2022-10-22T04:05:29.189Z,14.20
2022-10-22T04:07:55.828Z,14.10
2022-10-22T04:10:22.460Z,14.10
2022-10-22T04:12:49.178Z,14.20
2022-10-22T04:15:16.293Z,14.10
2022-10-22T04:17:43.537Z,14.10
2022-10-22T04:20:10.960Z,14.10
2022-10-22T04:22:37.717Z,14.10
2022-10-22T04:25:05.333Z,14.10
2022-10-22T04:27:34.141Z,14.10
2022-10-22T04:30:00.828Z,14.10
2022-10-22T04:32:28.111Z,14.10
2022-10-22T04:34:54.821Z,14.10
2022-10-22T04:37:21.695Z,14.10
2022-10-22T04:39:48.304Z,14.10
2022-10-22T04:42:15.115Z,14.10
2022-10-22T04:44:41.737Z,14.10
2022-10-22T04:47:08.401Z,14.10
2022-10-22T04:49:35.012Z,14.10
2022-10-22T04:52:01.710Z,14.10
2022-10-22T04:54:32.041Z,14.10
2022-10-22T04:56:59.886Z,14.10
2022-10-22T04:59:26.613Z,14.10
2022-10-22T05:01:53.286Z,14.10
2022-10-22T05:04:19.934Z,14.10
2022-10-22T05:06:47.031Z,14.10
2022-10-22T05:09:16.615Z,14.10
2022-10-22T05:11:46.255Z,14.00
2022-10-22T05:14:13.342Z,14.10
2022-10-22T05:16:40.167Z,14.10
2022-10-22T05:19:07.878Z,14.00
2022-10-22T05:21:34.961Z,14.00
2022-10-22T05:24:01.594Z,14.00
2022-10-22T05:26:29.178Z,14.00
2022-10-22T05:28:56.025Z,14.00
2022-10-22T05:31:22.783Z,14.00
2022-10-22T05:33:49.530Z,14.00
2022-10-22T05:36:19.560Z,14.00
2022-10-22T05:38:46.620Z,14.00
2022-10-22T05:41:22.528Z,14.00
2022-10-22T05:43:50.036Z,13.90
2022-10-22T05:46:22.803Z,13.90
2022-10-22T05:48:59.048Z,13.90
2022-10-22T05:51:28.070Z,13.90
2022-10-22T05:53:57.233Z,13.90
2022-10-22T05:56:24.775Z,13.90
2022-10-22T05:58:51.982Z,13.90
2022-10-22T06:01:21.245Z,13.90
2022-10-22T06:03:49.092Z,13.80
2022-10-22T06:06:21.618Z,13.80
2022-10-22T06:08:50.323Z,13.80
2022-10-22T06:11:18.565Z,13.80
2022-10-22T06:13:46.287Z,13.80
2022-10-22T06:16:13.818Z,13.80
2022-10-22T06:18:41.012Z,13.70
2022-10-22T06:21:09.926Z,13.60
2022-10-22T06:23:37.817Z,13.60
2022-10-22T06:26:05.441Z,13.60
2022-10-22T06:28:32.802Z,13.60
2022-10-22T06:31:00.147Z,13.60
2022-10-22T06:33:28.695Z,13.60
2022-10-22T06:35:55.434Z,13.60
2022-10-22T06:38:22.058Z,13.60
2022-10-22T06:40:48.695Z,13.60
2022-10-22T06:43:16.371Z,13.60
2022-10-22T06:45:43.182Z,13.50
2022-10-22T06:48:09.921Z,13.50
2022-10-22T06:50:36.722Z,13.50
2022-10-22T06:53:03.428Z,13.40
2022-10-22T06:55:30.103Z,13.50
2022-10-22T06:57:56.769Z,13.50
2022-10-22T07:00:23.712Z,13.50
2022-10-22T07:02:56.402Z,13.40
2022-10-22T07:05:25.816Z,13.40
2022-10-22T07:07:52.446Z,13.50
2022-10-22T07:10:19.064Z,13.50
2022-10-22T07:12:45.725Z,13.50
2022-10-22T07:15:12.447Z,13.50
2022-10-22T07:20:07.314Z,13.60
2022-10-22T07:22:34.043Z,13.60
2022-10-22T07:25:05.206Z,13.70
2022-10-22T07:27:34.170Z,13.70
2022-10-22T07:30:01.500Z,13.70
2022-10-22T07:32:28.325Z,13.70
2022-10-22T07:34:54.959Z,13.70
2022-10-22T07:37:22.115Z,13.70
2022-10-22T07:39:49.320Z,13.70
2022-10-22T07:42:16.477Z,13.70
2022-10-22T07:44:43.230Z,13.70
2022-10-22T07:47:09.957Z,13.70
2022-10-22T07:49:36.576Z,13.80
2022-10-22T07:52:03.322Z,13.80
2022-10-22T07:54:30.020Z,13.80
2022-10-22T07:56:56.737Z,13.80
2022-10-22T07:59:23.366Z,13.80
2022-10-22T08:01:50.012Z,13.80
2022-10-22T08:04:16.625Z,13.90
2022-10-22T08:06:45.822Z,13.90
2022-10-22T08:09:14.108Z,13.90
2022-10-22T08:11:40.834Z,13.90
2022-10-22T08:14:07.572Z,13.90
2022-10-22T08:16:34.345Z,14.10
2022-10-22T08:19:01.050Z,14.00
2022-10-22T08:21:27.744Z,14.10
2022-10-22T08:23:54.430Z,14.10
2022-10-22T08:26:21.122Z,14.10
2022-10-22T08:28:47.908Z,14.20
2022-10-22T08:31:14.703Z,14.30
2022-10-22T08:33:42.019Z,14.30
2022-10-22T08:36:09.338Z,14.40
2022-10-22T08:38:36.145Z,14.40
2022-10-22T08:41:21.829Z,14.40
2022-10-22T08:44:00.039Z,14.50
2022-10-22T08:46:53.925Z,14.60
2022-10-22T08:49:29.897Z,14.60
2022-10-22T08:51:58.526Z,14.70
2022-10-22T08:54:37.617Z,14.80
2022-10-22T08:57:16.767Z,14.80
2022-10-22T08:59:59.514Z,14.90
2022-10-22T09:03:18.436Z,14.90
2022-10-22T09:06:08.037Z,15.00
2022-10-22T09:08:36.111Z,15.10
2022-10-22T09:11:12.647Z,15.20
2022-10-22T09:13:42.385Z,15.20
2022-10-22T09:16:16.324Z,15.30
2022-10-22T09:18:59.282Z,15.30
2022-10-22T09:21:28.677Z,15.40
2022-10-22T09:24:04.705Z,15.40
2022-10-22T09:26:36.269Z,15.60
2022-10-22T09:29:02.985Z,15.60
2022-10-22T09:31:32.147Z,15.60
2022-10-22T09:34:01.704Z,15.70
2022-10-22T09:36:29.123Z,15.70
2022-10-22T09:38:55.780Z,15.80
2022-10-22T09:41:29.770Z,15.80
2022-10-22T09:43:56.911Z,15.90
2022-10-22T09:46:27.630Z,15.90
2022-10-22T09:49:06.617Z,16.00
2022-10-22T09:51:36.314Z,16.00
2022-10-22T09:54:13.474Z,16.10
2022-10-22T09:56:42.045Z,16.20
2022-10-22T09:59:16.791Z,16.20
2022-10-22T10:01:44.630Z,16.30
2022-10-22T10:04:14.492Z,16.40
2022-10-22T10:06:43.864Z,16.60
2022-10-22T10:09:17.356Z,16.70
2022-10-22T10:11:58.710Z,16.90
2022-10-22T10:14:37.430Z,16.80
2022-10-22T10:17:16.085Z,16.90
2022-10-22T10:20:04.209Z,16.80
2022-10-22T10:22:49.405Z,16.90
2022-10-22T10:25:49.623Z,16.90
2022-10-22T10:28:49.972Z,16.90
2022-10-22T10:31:19.390Z,17.00
2022-10-22T10:33:57.665Z,17.00
2022-10-22T10:36:40.937Z,17.00
2022-10-22T10:39:18.613Z,17.10
2022-10-22T10:42:00.884Z,17.10
2022-10-22T10:44:37.483Z,17.20
2022-10-22T10:47:04.094Z,17.20
2022-10-22T10:49:34.724Z,17.30
2022-10-22T10:52:26.125Z,17.30
2022-10-22T10:55:00.633Z,17.40
2022-10-22T10:57:55.460Z,17.50
2022-10-22T11:00:22.713Z,17.50
2022-10-22T11:03:08.048Z,17.60
2022-10-22T11:05:41.166Z,17.70
2022-10-22T11:08:16.326Z,17.70
2022-10-22T11:10:46.092Z,17.80
2022-10-22T11:13:22.410Z,17.90
2022-10-22T11:15:57.766Z,18.00
2022-10-22T11:18:40.598Z,18.00
2022-10-22T11:21:31.534Z,18.10
2022-10-22T11:24:16.992Z,18.20
2022-10-22T11:26:56.741Z,18.30
2022-10-22T11:29:32.808Z,18.30
2022-10-22T11:32:01.954Z,18.40
2022-10-22T11:34:37.908Z,18.40
2022-10-22T11:37:06.366Z,18.30
2022-10-22T11:39:40.673Z,18.30
2022-10-22T11:42:12.010Z,18.20
2022-10-22T11:44:57.652Z,18.20
2022-10-22T11:47:26.400Z,18.20
2022-10-22T11:49:59.433Z,18.20
2022-10-22T11:52:31.803Z,18.30
2022-10-22T11:55:03.144Z,18.20
2022-10-22T11:57:39.349Z,18.30
2022-10-22T12:00:35.540Z,18.20
2022-10-22T12:03:14.937Z,18.20
2022-10-22T12:05:41.576Z,18.30
2022-10-22T12:08:52.869Z,18.30
2022-10-22T12:11:38.226Z,18.20
2022-10-22T12:14:28.115Z,18.20
2022-10-22T12:17:03.670Z,18.20
2022-10-22T12:19:38.497Z,18.20
2022-10-22T12:22:18.166Z,18.20
2022-10-22T12:24:49.358Z,18.20
2022-10-22T12:27:22.695Z,18.20
2022-10-22T12:30:00.817Z,18.20
2022-10-22T12:32:39.035Z,18.20
2022-10-22T12:35:17.360Z,18.20
2022-10-22T12:37:44.269Z,18.20
2022-10-22T12:40:34.778Z,18.20
2022-10-22T12:45:46.725Z,18.30
2022-10-22T12:48:21.823Z,18.30
2022-10-22T12:50:55.161Z,18.40
2022-10-22T12:53:34.908Z,18.40
2022-10-22T12:56:07.013Z,18.40
2022-10-22T12:58:39.454Z,18.40
2022-10-22T13:01:06.605Z,18.50
2022-10-22T13:03:41.039Z,18.50
2022-10-22T13:06:13.458Z,18.50
2022-10-22T13:08:40.639Z,18.50
2022-10-22T13:11:10.310Z,18.50
2022-10-22T13:13:36.893Z,18.50
2022-10-22T13:16:21.748Z,18.50
2022-10-22T13:18:48.782Z,18.50
2022-10-22T13:21:26.398Z,18.50
2022-10-22T13:23:55.485Z,18.60
2022-10-22T13:26:24.151Z,18.70
2022-10-22T13:28:56.038Z,18.60
2022-10-22T13:31:28.579Z,18.60
2022-10-22T13:34:03.643Z,18.70
2022-10-22T13:36:33.447Z,18.60
2022-10-22T13:39:00.118Z,18.70
2022-10-22T13:41:30.880Z,18.70
2022-10-22T13:43:58.097Z,18.70
2022-10-22T13:46:26.461Z,18.70
2022-10-22T13:48:56.101Z,18.70
2022-10-22T13:51:32.413Z,18.60
2022-10-22T13:53:59.238Z,18.70
2022-10-22T13:56:25.898Z,18.60
2022-10-22T13:58:52.797Z,18.60
2022-10-22T14:01:27.314Z,18.70
2022-10-22T14:03:58.018Z,18.60
2022-10-22T14:06:28.624Z,18.60
2022-10-22T14:08:58.709Z,18.60
2022-10-22T14:11:31.234Z,18.60
2022-10-22T14:13:59.567Z,18.70
2022-10-22T14:16:28.534Z,18.60
2022-10-22T14:18:55.992Z,18.60
2022-10-22T14:21:23.075Z,18.50
2022-10-22T14:23:51.652Z,18.50
2022-10-22T14:26:30.175Z,18.50
2022-10-22T14:29:12.347Z,18.50
2022-10-22T14:31:44.142Z,18.50
2022-10-22T14:34:13.868Z,18.50
2022-10-22T14:36:43.502Z,18.50
2022-10-22T14:39:10.366Z,18.50
2022-10-22T14:41:37.611Z,18.50
2022-10-22T14:44:04.445Z,18.50
2022-10-22T14:46:31.154Z,18.50
2022-10-22T14:48:57.820Z,18.50
2022-10-22T14:51:24.586Z,18.50
2022-10-22T14:53:51.231Z,18.40
2022-10-22T14:56:22.686Z,18.40
2022-10-22T14:58:49.865Z,18.40
2022-10-22T15:01:17.064Z,18.40
2022-10-22T15:03:43.787Z,18.40
2022-10-22T15:06:10.575Z,18.40
2022-10-22T15:08:37.473Z,18.40
2022-10-22T15:11:07.677Z,18.40
2022-10-22T15:13:35.422Z,18.40
2022-10-22T15:16:06.152Z,18.30
2022-10-22T15:18:32.949Z,18.30
2022-10-22T15:21:02.297Z,18.30
2022-10-22T15:23:29.451Z,18.30
2022-10-22T15:25:56.500Z,18.30
2022-10-22T15:28:24.697Z,18.20
2022-10-22T15:30:56.383Z,18.20
2022-10-22T15:33:23.224Z,18.10
2022-10-22T15:35:50.059Z,18.10
2022-10-22T15:38:17.117Z,18.10
2022-10-22T15:40:43.856Z,18.00
2022-10-22T15:43:10.982Z,18.00
2022-10-22T15:45:37.890Z,17.90
2022-10-22T15:48:04.887Z,17.90
2022-10-22T15:50:32.159Z,17.90
2022-10-22T15:52:58.797Z,17.80
2022-10-22T15:55:25.534Z,17.80
2022-10-22T15:57:56.478Z,17.70
2022-10-22T16:00:25.084Z,17.70
2022-10-22T16:02:54.106Z,17.60
2022-10-22T16:05:20.846Z,17.50
2022-10-22T16:07:47.513Z,17.50
2022-10-22T16:10:14.222Z,17.40
2022-10-22T16:12:41.563Z,17.30
2022-10-22T16:15:09.601Z,17.20
2022-10-22T16:17:36.229Z,17.20
2022-10-22T16:20:03.223Z,17.10
2022-10-22T16:22:29.876Z,17.10
2022-10-22T16:24:56.501Z,17.00
2022-10-22T16:27:23.154Z,17.00
2022-10-22T16:29:49.772Z,16.90
2022-10-22T16:32:16.831Z,16.90
2022-10-22T16:34:43.745Z,16.80
2022-10-22T16:37:10.616Z,16.80
2022-10-22T16:39:37.306Z,16.70
2022-10-22T16:42:04.130Z,16.70
2022-10-22T16:44:30.906Z,16.60
2022-10-22T16:46:57.566Z,16.60
2022-10-22T16:49:24.371Z,16.50
2022-10-22T16:51:51.052Z,16.50
2022-10-22T16:54:17.768Z,16.40
2022-10-22T16:56:44.406Z,16.40
2022-10-22T16:59:11.069Z,16.30
2022-10-22T17:01:40.888Z,16.20
2022-10-22T17:04:08.177Z,16.20
2022-10-22T17:06:34.936Z,16.20
2022-10-22T17:09:01.642Z,16.10
2022-10-22T17:11:34.494Z,16.10
2022-10-22T17:14:01.887Z,16.10
2022-10-22T17:16:28.776Z,16.00
2022-10-22T17:18:57.023Z,16.00
2022-10-22T17:21:24.518Z,15.90
2022-10-22T17:23:56.476Z,15.90
2022-10-22T17:26:26.413Z,15.80
2022-10-22T17:28:53.490Z,15.80
2022-10-22T17:31:25.190Z,15.70
2022-10-22T17:33:53.797Z,15.80
2022-10-22T17:36:21.716Z,15.80
2022-10-22T17:38:51.283Z,15.70
2022-10-22T17:41:20.903Z,15.70
2022-10-22T17:43:48.360Z,15.70
2022-10-22T17:46:21.063Z,15.70
2022-10-22T17:48:56.247Z,15.70
2022-10-22T17:51:24.003Z,15.60
2022-10-22T17:53:50.911Z,15.60
2022-10-22T17:56:36.987Z,15.60
2022-10-22T17:59:04.322Z,15.70
2022-10-22T18:01:33.411Z,15.60
2022-10-22T18:04:03.651Z,15.60
2022-10-22T18:06:30.593Z,15.60
2022-10-22T18:08:57.332Z,15.50
2022-10-22T18:11:26.678Z,15.50
2022-10-22T18:13:55.773Z,15.50
2022-10-22T18:16:23.092Z,15.40
2022-10-22T18:18:51.605Z,15.40
2022-10-22T18:21:18.986Z,15.40
2022-10-22T18:23:46.441Z,15.40
2022-10-22T18:26:14.048Z,15.40
2022-10-22T18:28:41.078Z,15.40
2022-10-22T18:31:10.590Z,15.40
2022-10-22T18:33:38.873Z,15.40
2022-10-22T18:36:11.767Z,15.30
2022-10-22T18:38:38.817Z,15.30
2022-10-22T18:41:10.139Z,15.30
2022-10-22T18:43:36.866Z,15.30
2022-10-22T18:46:07.314Z,15.30
2022-10-22T18:48:37.750Z,15.30
2022-10-22T18:51:09.174Z,15.30
2022-10-22T18:53:37.442Z,15.20
2022-10-22T18:56:09.064Z,15.20
2022-10-22T18:58:44.920Z,15.10
2022-10-22T19:01:23.643Z,15.10
2022-10-22T19:03:50.943Z,15.10
2022-10-22T19:06:25.391Z,15.10
2022-10-22T19:08:52.084Z,15.10
2022-10-22T19:11:18.860Z,15.00
2022-10-22T19:13:45.647Z,15.00
2022-10-22T19:16:18.402Z,15.00
2022-10-22T19:18:45.067Z,15.00
2022-10-22T19:21:11.795Z,15.00
2022-10-22T19:23:38.475Z,14.90
2022-10-22T19:26:12.391Z,14.90
2022-10-22T19:28:39.773Z,14.90
2022-10-22T19:31:08.272Z,14.90
2022-10-22T19:33:36.302Z,14.90
2022-10-22T19:36:13.597Z,14.80
2022-10-22T19:38:42.778Z,14.80
2022-10-22T19:41:14.477Z,14.80
2022-10-22T19:43:43.090Z,14.90
2022-10-22T19:46:10.566Z,14.80
2022-10-22T19:48:37.764Z,14.80
2022-10-22T19:51:10.346Z,14.80
2022-10-22T19:53:38.417Z,14.70
2022-10-22T19:56:07.942Z,14.80
2022-10-22T19:58:35.540Z,14.70
2022-10-22T20:01:10.082Z,14.70
2022-10-22T20:03:38.441Z,14.70
2022-10-22T20:06:07.271Z,14.70
2022-10-22T20:08:37.768Z,14.70
2022-10-22T20:11:16.279Z,14.60
2022-10-22T20:13:45.373Z,14.60
2022-10-22T20:16:16.687Z,14.60
2022-10-22T20:18:43.463Z,14.50
2022-10-22T20:21:14.249Z,14.50
2022-10-22T20:23:43.085Z,14.50
2022-10-22T20:26:09.953Z,14.50
2022-10-22T20:28:37.580Z,14.50
2022-10-22T20:31:09.833Z,14.40
2022-10-22T20:33:36.560Z,14.40
2022-10-22T20:36:06.569Z,14.40
2022-10-22T20:38:34.187Z,14.30
2022-10-22T20:41:10.308Z,14.30
2022-10-22T20:43:37.102Z,14.30
2022-10-22T20:46:04.312Z,14.30
2022-10-22T20:48:31.625Z,14.30
2022-10-22T20:50:59.597Z,14.40
2022-10-22T20:53:27.027Z,14.40
2022-10-22T20:55:57.629Z,14.30
2022-10-22T20:58:26.852Z,14.30
2022-10-22T21:00:55.057Z,14.30
2022-10-22T21:03:21.975Z,14.30
2022-10-22T21:05:48.860Z,14.30
2022-10-22T21:08:17.479Z,14.30
2022-10-22T21:10:46.486Z,14.20
2022-10-22T21:13:13.693Z,14.20
2022-10-22T21:15:40.519Z,14.20
2022-10-22T21:18:07.956Z,14.10
2022-10-22T21:20:34.927Z,14.20
2022-10-22T21:23:01.659Z,14.10
2022-10-22T21:25:28.362Z,14.10
2022-10-22T21:27:55.000Z,14.10
2022-10-22T21:30:21.679Z,14.00
2022-10-22T21:32:48.310Z,14.00
2022-10-22T21:35:15.128Z,14.10
2022-10-22T21:37:42.163Z,14.00
2022-10-22T21:40:09.458Z,14.00
2022-10-22T21:42:36.109Z,14.00
2022-10-22T21:45:02.805Z,14.00
2022-10-22T21:47:29.514Z,14.00
2022-10-22T21:49:56.166Z,13.90
2022-10-22T21:52:22.953Z,13.90
2022-10-22T21:54:49.580Z,13.90
2022-10-22T21:57:16.370Z,13.90
2022-10-22T21:59:43.002Z,13.90
2022-10-22T22:02:09.781Z,13.90
2022-10-22T22:04:37.119Z,13.90
2022-10-22T22:07:03.817Z,13.90
2022-10-22T22:09:30.449Z,13.90
2022-10-22T22:11:57.189Z,13.90
2022-10-22T22:14:23.836Z,13.80
2022-10-22T22:16:50.481Z,13.80
2022-10-22T22:19:17.119Z,13.80
2022-10-22T22:21:43.745Z,13.80
2022-10-22T22:24:12.673Z,13.80
2022-10-22T22:26:39.980Z,13.70
2022-10-22T22:29:06.600Z,13.80
2022-10-22T22:31:34.897Z,13.70
2022-10-22T22:34:04.281Z,13.70
2022-10-22T22:36:40.043Z,13.70
2022-10-22T22:39:08.972Z,13.70
2022-10-22T22:41:35.663Z,13.60
2022-10-22T22:44:02.568Z,13.60
2022-10-22T22:46:29.209Z,13.60
2022-10-22T22:48:56.048Z,13.60
2022-10-22T22:51:22.754Z,13.50
2022-10-22T22:53:49.527Z,13.50
2022-10-22T22:56:22.231Z,13.40
2022-10-22T22:58:49.637Z,13.40
2022-10-22T23:01:18.048Z,13.40
2022-10-22T23:03:47.850Z,13.40
2022-10-22T23:06:15.192Z,13.40
2022-10-22T23:08:42.801Z,13.40
2022-10-22T23:11:12.310Z,13.40
2022-10-22T23:13:40.416Z,13.40
2022-10-22T23:16:19.043Z,13.40
2022-10-22T23:18:47.242Z,13.40
2022-10-22T23:21:19.532Z,13.40
2022-10-22T23:23:51.920Z,13.40
2022-10-22T23:26:24.398Z,13.40
2022-10-22T23:28:51.390Z,13.40
2022-10-22T23:31:20.051Z,13.40
2022-10-22T23:33:46.750Z,13.40
2022-10-22T23:36:14.346Z,13.50
2022-10-22T23:38:41.623Z,13.50
2022-10-22T23:41:09.119Z,13.50
2022-10-22T23:43:36.355Z,13.50
2022-10-22T23:46:07.635Z,13.50
2022-10-22T23:48:35.153Z,13.50
2022-10-22T23:51:13.051Z,13.50
2022-10-22T23:53:41.291Z,13.50
2022-10-22T23:56:18.179Z,13.50
2022-10-22T23:58:45.264Z,13.50
